createdAt,value
2019-04-20T00:00:46.073Z,53.40
2019-04-20T00:03:11.640Z,52.80
2019-04-20T00:05:39.279Z,53.20
2019-04-20T00:08:12.757Z,52.50
2019-04-20T00:10:48.740Z,52.70
2019-04-20T00:13:19.424Z,53.10
2019-04-20T00:15:36.761Z,53.00
2019-04-20T00:18:06.763Z,54.00
2019-04-20T00:20:37.177Z,54.10
2019-04-20T00:23:33.779Z,54.60
2019-04-20T00:26:24.923Z,55.50
2019-04-20T00:29:00.317Z,55.40
2019-04-20T00:31:29.739Z,54.20
2019-04-20T00:33:55.863Z,55.00
2019-04-20T00:36:13.897Z,54.90
2019-04-20T00:38:48.384Z,55.20
2019-04-20T00:41:14.213Z,55.30
2019-04-20T00:43:42.241Z,56.60
2019-04-20T00:46:18.348Z,56.60
2019-04-20T00:48:50.668Z,54.70
2019-04-20T00:51:40.491Z,56.40
2019-04-20T00:53:44.971Z,55.30
2019-04-20T00:56:09.986Z,54.70
2019-04-20T00:58:53.543Z,53.00
2019-04-20T01:01:25.166Z,54.20
2019-04-20T01:03:52.239Z,54.40
2019-04-20T01:06:36.611Z,55.00
2019-04-20T01:09:01.537Z,55.50
2019-04-20T01:11:36.829Z,55.90
2019-04-20T01:14:04.670Z,57.20
2019-04-20T01:16:38.885Z,56.20
2019-04-20T01:18:59.391Z,56.30
2019-04-20T01:21:29.844Z,56.10
2019-04-20T01:24:01.554Z,56.30
2019-04-20T01:26:27.393Z,56.40
2019-04-20T01:29:09.021Z,56.50
2019-04-20T01:31:33.972Z,56.10
2019-04-20T01:34:03.009Z,56.40
2019-04-20T01:36:40.688Z,56.50
2019-04-20T01:39:06.693Z,56.30
2019-04-20T01:41:22.499Z,56.00
2019-04-20T01:43:50.195Z,56.60
2019-04-20T01:46:23.090Z,57.20
2019-04-20T01:48:48.103Z,57.10
2019-04-20T01:51:21.301Z,56.90
2019-04-20T01:54:06.957Z,57.20
2019-04-20T01:56:33.915Z,56.80
2019-04-20T01:59:19.999Z,56.60
2019-04-20T02:01:59.282Z,57.30
2019-04-20T02:04:35.972Z,56.80
2019-04-20T02:07:03.853Z,57.00
2019-04-20T02:09:32.708Z,58.60
2019-04-20T02:12:10.311Z,57.70
2019-04-20T02:14:40.516Z,57.10
2019-04-20T02:17:09.564Z,57.30
2019-04-20T02:19:42.736Z,58.00
2019-04-20T02:22:13.542Z,58.40
2019-04-20T02:24:29.964Z,58.20
2019-04-20T02:26:57.923Z,59.00
2019-04-20T02:29:47.458Z,58.80
2019-04-20T02:32:23.960Z,59.20
2019-04-20T02:34:59.804Z,59.60
2019-04-20T02:37:58.503Z,60.10
2019-04-20T02:42:53.378Z,59.80
2019-04-20T02:45:17.417Z,60.10
2019-04-20T02:50:15.294Z,60.40
2019-04-20T02:55:14.614Z,60.60
2019-04-20T02:57:47.277Z,60.90
2019-04-20T03:02:23.633Z,59.90
2019-04-20T03:04:45.256Z,59.70
2019-04-20T03:07:19.237Z,60.00
2019-04-20T03:09:54.384Z,60.20
2019-04-20T03:12:28.858Z,60.70
2019-04-20T03:14:47.831Z,59.90
2019-04-20T03:17:30.033Z,59.70
2019-04-20T03:19:51.262Z,60.60
2019-04-20T03:22:36.501Z,59.10
2019-04-20T03:24:55.410Z,59.50
2019-04-20T03:27:33.026Z,59.20
2019-04-20T03:31:04.075Z,59.80
2019-04-20T03:33:12.679Z,59.80
2019-04-20T03:35:22.487Z,59.70
2019-04-20T03:37:52.883Z,60.10
2019-04-20T03:40:19.303Z,60.90
2019-04-20T03:42:30.928Z,61.20
2019-04-20T03:45:06.012Z,60.70
2019-04-20T03:47:38.785Z,61.60
2019-04-20T03:50:24.953Z,60.80
2019-04-20T03:52:51.331Z,60.70
2019-04-20T03:55:28.720Z,60.80
2019-04-20T03:58:10.743Z,60.20
2019-04-20T04:00:57.275Z,59.80
2019-04-20T04:06:05.434Z,60.30
2019-04-20T04:08:30.936Z,61.30
2019-04-20T04:11:12.306Z,61.70
2019-04-20T04:13:23.015Z,63.30
2019-04-20T04:15:57.558Z,62.80
2019-04-20T04:18:28.052Z,63.40
2019-04-20T04:20:57.306Z,63.20
2019-04-20T04:23:36.616Z,63.00
2019-04-20T04:26:12.944Z,62.60
2019-04-20T04:28:37.337Z,62.30
2019-04-20T04:31:07.939Z,62.50
2019-04-20T04:36:00.586Z,62.90
2019-04-20T04:38:37.393Z,63.80
2019-04-20T04:43:36.305Z,62.90
2019-04-20T04:45:45.284Z,63.20
2019-04-20T04:48:18.954Z,64.00
2019-04-20T04:50:47.494Z,63.50
2019-04-20T04:53:25.052Z,62.90
2019-04-20T04:55:47.734Z,63.40
2019-04-20T04:58:12.762Z,63.40
2019-04-20T05:00:40.797Z,63.90
2019-04-20T05:03:27.012Z,64.80
2019-04-20T05:06:13.341Z,64.70
2019-04-20T05:08:34.738Z,64.30
2019-04-20T05:10:56.304Z,64.10
2019-04-20T05:13:26.735Z,64.40
2019-04-20T05:16:08.118Z,64.40
2019-04-20T05:18:45.085Z,64.40
2019-04-20T05:21:25.627Z,64.80
2019-04-20T05:24:06.174Z,65.00
2019-04-20T05:27:03.060Z,65.00
2019-04-20T05:29:14.471Z,64.60
2019-04-20T05:31:45.977Z,64.70
2019-04-20T05:34:25.792Z,65.60
2019-04-20T05:36:50.585Z,64.50
2019-04-20T05:39:26.974Z,64.30
2019-04-20T05:41:53.199Z,64.80
2019-04-20T05:44:22.094Z,65.30
2019-04-20T05:47:03.027Z,65.20
2019-04-20T05:49:33.082Z,64.80
2019-04-20T05:51:56.033Z,66.20
2019-04-20T05:54:27.745Z,67.20
2019-04-20T05:57:00.597Z,67.40
2019-04-20T05:59:26.125Z,67.70
2019-04-20T06:01:57.693Z,70.00
2019-04-20T06:04:40.037Z,70.40
2019-04-20T06:06:56.500Z,69.70
2019-04-20T06:09:28.682Z,69.10
2019-04-20T06:12:07.803Z,69.40
2019-04-20T06:14:41.511Z,70.00
2019-04-20T06:17:31.994Z,68.20
2019-04-20T06:20:09.037Z,67.40
2019-04-20T06:22:42.797Z,66.40
2019-04-20T06:25:33.389Z,66.40
2019-04-20T06:27:49.273Z,66.10
2019-04-20T06:30:06.881Z,66.50
2019-04-20T06:33:25.180Z,66.60
2019-04-20T06:36:15.097Z,67.40
2019-04-20T06:38:38.324Z,65.70
2019-04-20T06:40:59.421Z,66.50
2019-04-20T06:43:18.055Z,66.20
2019-04-20T06:45:51.294Z,66.10
2019-04-20T06:48:21.465Z,66.10
2019-04-20T06:50:44.114Z,66.90
2019-04-20T06:53:46.962Z,66.40
2019-04-20T06:56:05.312Z,64.80
2019-04-20T06:58:46.359Z,65.00
2019-04-20T07:01:02.187Z,65.80
2019-04-20T07:03:42.322Z,64.00
2019-04-20T07:06:24.952Z,64.10
2019-04-20T07:08:48.868Z,65.20
2019-04-20T07:11:04.348Z,64.90
2019-04-20T07:13:22.976Z,65.60
2019-04-20T07:15:57.177Z,65.00
2019-04-20T07:18:35.778Z,67.30
2019-04-20T07:21:22.965Z,65.20
2019-04-20T07:23:48.288Z,62.90
2019-04-20T07:26:16.954Z,62.90
2019-04-20T07:28:47.316Z,64.10
2019-04-20T07:31:17.282Z,63.60
2019-04-20T07:33:46.338Z,66.40
2019-04-20T07:36:22.747Z,65.90
2019-04-20T07:39:05.567Z,64.20
2019-04-20T07:41:08.723Z,63.80
2019-04-20T07:43:57.383Z,64.60
2019-04-20T07:46:33.160Z,63.30
2019-04-20T07:48:42.365Z,63.20
2019-04-20T07:51:02.668Z,66.30
2019-04-20T07:53:34.391Z,66.20
2019-04-20T07:56:12.578Z,62.60
2019-04-20T07:58:30.706Z,62.40
2019-04-20T08:01:23.796Z,61.80
2019-04-20T08:04:01.393Z,61.10
2019-04-20T08:06:23.441Z,61.50
2019-04-20T08:08:58.627Z,60.30
2019-04-20T08:11:36.887Z,58.10
2019-04-20T08:14:07.351Z,59.10
2019-04-20T08:16:51.758Z,57.90
2019-04-20T08:19:07.938Z,58.30
2019-04-20T08:21:38.703Z,60.20
2019-04-20T08:24:02.913Z,58.30
2019-04-20T08:26:21.456Z,57.50
2019-04-20T08:29:01.187Z,58.20
2019-04-20T08:32:08.489Z,58.00
2019-04-20T08:34:44.383Z,57.70
2019-04-20T08:37:07.131Z,58.80
2019-04-20T08:39:45.375Z,59.40
2019-04-20T08:42:05.843Z,59.70
2019-04-20T08:47:24.193Z,58.00
2019-04-20T08:49:57.122Z,58.10
2019-04-20T08:52:38.175Z,58.40
2019-04-20T08:54:31.295Z,58.60
2019-04-20T08:56:51.732Z,58.10
2019-04-20T08:59:14.055Z,56.60
2019-04-20T09:01:42.660Z,56.70
2019-04-20T09:04:17.763Z,58.10
2019-04-20T09:06:53.385Z,58.30
2019-04-20T09:09:37.926Z,58.70
2019-04-20T09:12:17.978Z,58.00
2019-04-20T09:14:20.938Z,59.50
2019-04-20T09:16:58.196Z,57.80
2019-04-20T09:19:29.946Z,58.40
2019-04-20T09:22:12.185Z,56.10
2019-04-20T09:24:51.118Z,57.80
2019-04-20T09:27:08.686Z,57.80
2019-04-20T09:29:36.805Z,58.70
2019-04-20T09:32:18.227Z,58.30
2019-04-20T09:34:53.285Z,56.50
2019-04-20T09:37:32.104Z,59.10
2019-04-20T09:40:22.102Z,58.80
2019-04-20T09:42:57.745Z,55.90
2019-04-20T09:45:49.880Z,56.80
2019-04-20T09:48:23.347Z,55.00
2019-04-20T09:51:03.855Z,59.40
2019-04-20T09:53:24.553Z,57.00
2019-04-20T09:56:04.570Z,52.30
2019-04-20T09:58:25.710Z,51.70
2019-04-20T10:00:58.217Z,51.80
2019-04-20T10:03:13.255Z,51.30
2019-04-20T10:05:41.279Z,52.30
2019-04-20T10:08:10.061Z,51.20
2019-04-20T10:10:42.661Z,51.50
2019-04-20T10:13:09.180Z,52.30
2019-04-20T10:15:37.544Z,49.70
2019-04-20T10:18:05.795Z,49.30
2019-04-20T10:20:36.528Z,49.00
2019-04-20T10:23:02.698Z,49.70
2019-04-20T10:25:30.873Z,50.60
2019-04-20T10:27:58.774Z,50.00
2019-04-20T10:30:26.390Z,48.50
2019-04-20T10:32:55.707Z,51.50
2019-04-20T10:35:23.432Z,48.40
2019-04-20T10:37:55.677Z,48.00
2019-04-20T10:40:39.079Z,47.10
2019-04-20T10:42:53.571Z,46.30
2019-04-20T10:45:21.621Z,46.70
2019-04-20T10:47:50.751Z,45.80
2019-04-20T10:50:18.823Z,46.60
2019-04-20T10:52:47.649Z,50.50
2019-04-20T10:55:16.513Z,44.80
2019-04-20T10:57:45.782Z,45.90
2019-04-20T11:00:15.470Z,45.00
2019-04-20T11:02:45.780Z,45.30
2019-04-20T11:05:12.785Z,45.70
2019-04-20T11:07:40.844Z,44.90
2019-04-20T11:10:16.622Z,43.30
2019-04-20T11:12:38.167Z,41.00
2019-04-20T11:15:06.568Z,42.70
2019-04-20T11:17:35.271Z,44.10
2019-04-20T11:20:03.611Z,44.00
2019-04-20T11:22:32.553Z,38.80
2019-04-20T11:25:00.373Z,38.70
2019-04-20T11:27:28.086Z,39.00
2019-04-20T11:29:56.065Z,39.00
2019-04-20T11:32:24.208Z,38.10
2019-04-20T11:34:51.800Z,36.90
2019-04-20T11:37:19.611Z,34.90
2019-04-20T11:39:47.328Z,36.20
2019-04-20T11:42:15.000Z,34.30
2019-04-20T11:44:42.672Z,36.50
2019-04-20T11:47:10.721Z,38.00
2019-04-20T11:49:39.347Z,36.50
2019-04-20T11:52:07.728Z,34.90
2019-04-20T11:54:36.356Z,35.50
2019-04-20T11:57:04.038Z,35.90
2019-04-20T11:59:32.719Z,33.90
2019-04-20T12:02:25.366Z,33.50
2019-04-20T12:05:06.328Z,34.50
2019-04-20T12:07:22.614Z,32.30
2019-04-20T12:09:51.437Z,33.60
2019-04-20T12:12:29.996Z,31.90
2019-04-20T12:14:48.604Z,32.20
2019-04-20T12:17:16.079Z,34.50
2019-04-20T12:19:43.912Z,31.40
2019-04-20T12:22:11.938Z,34.00
2019-04-20T12:24:40.337Z,32.60
2019-04-20T12:27:09.020Z,32.50
2019-04-20T12:29:38.616Z,30.80
2019-04-20T12:32:07.590Z,27.70
2019-04-20T12:34:37.105Z,28.70
2019-04-20T12:37:05.032Z,29.80
2019-04-20T12:39:33.236Z,29.20
2019-04-20T12:42:04.775Z,29.20
2019-04-20T12:44:30.293Z,30.20
2019-04-20T12:46:59.539Z,27.30
2019-04-20T12:49:27.603Z,28.30
2019-04-20T12:51:59.454Z,27.80
2019-04-20T12:54:24.942Z,29.90
2019-04-20T12:56:53.037Z,29.40
2019-04-20T12:59:21.669Z,29.60
2019-04-20T13:01:51.268Z,27.50
2019-04-20T13:04:18.844Z,27.40
2019-04-20T13:06:46.978Z,28.50
2019-04-20T13:09:14.657Z,28.80
2019-04-20T13:11:57.362Z,29.30
2019-04-20T13:15:00.264Z,28.40
2019-04-20T13:17:28.315Z,28.40
2019-04-20T13:19:57.385Z,28.90
2019-04-20T13:22:25.353Z,27.40
2019-04-20T13:24:53.314Z,27.50
2019-04-20T13:27:20.959Z,30.10
2019-04-20T13:29:50.837Z,29.40
2019-04-20T13:32:18.199Z,26.90
2019-04-20T13:34:46.555Z,26.40
2019-04-20T13:37:14.176Z,27.70
2019-04-20T13:39:42.721Z,27.60
2019-04-20T13:42:18.672Z,28.70
2019-04-20T13:44:41.119Z,31.80
2019-04-20T13:47:09.181Z,28.10
2019-04-20T13:49:36.903Z,27.80
2019-04-20T13:52:04.613Z,29.40
2019-04-20T13:54:32.515Z,29.00
2019-04-20T13:57:01.986Z,25.50
2019-04-20T13:59:35.169Z,21.70
2019-04-20T14:02:38.591Z,22.90
2019-04-20T14:05:06.775Z,21.10
2019-04-20T14:07:35.659Z,20.90
2019-04-20T14:10:05.845Z,19.40
2019-04-20T14:12:37.562Z,20.70
2019-04-20T14:15:05.070Z,20.70
2019-04-20T14:17:33.021Z,19.30
2019-04-20T14:20:06.913Z,17.40
2019-04-20T14:22:31.322Z,17.80
2019-04-20T14:24:59.136Z,19.40
2019-04-20T14:27:26.707Z,16.20
2019-04-20T14:29:55.165Z,17.10
2019-04-20T14:32:22.949Z,15.30
2019-04-20T14:34:51.192Z,16.70
2019-04-20T14:37:18.851Z,16.70
2019-04-20T14:39:47.725Z,15.60
2019-04-20T14:42:26.862Z,16.40
2019-04-20T14:44:45.968Z,17.40
2019-04-20T14:47:13.902Z,18.40
2019-04-20T14:49:42.902Z,18.90
2019-04-20T14:52:11.477Z,18.70
2019-04-20T14:54:39.443Z,18.00
2019-04-20T14:57:07.707Z,17.60
2019-04-20T14:59:38.954Z,17.20
2019-04-20T15:02:10.531Z,16.90
2019-04-20T15:04:39.047Z,18.00
2019-04-20T15:07:06.796Z,18.40
2019-04-20T15:09:37.028Z,17.10
2019-04-20T15:12:04.579Z,17.70
2019-04-20T15:14:32.398Z,17.80
2019-04-20T15:17:00.641Z,18.80
2019-04-20T15:19:43.263Z,18.70
2019-04-20T15:22:32.120Z,18.90
2019-04-20T15:25:00.030Z,18.70
2019-04-20T15:27:28.260Z,20.00
2019-04-20T15:29:56.177Z,19.60
2019-04-20T15:32:25.028Z,19.10
2019-04-20T15:34:55.058Z,20.00
2019-04-20T15:37:23.449Z,20.20
2019-04-20T15:39:50.925Z,20.50
2019-04-20T15:42:19.201Z,19.60
2019-04-20T15:44:47.244Z,21.10
2019-04-20T15:47:15.396Z,19.80
2019-04-20T15:49:44.238Z,20.00
2019-04-20T15:52:17.855Z,19.90
2019-04-20T15:54:41.363Z,19.80
2019-04-20T15:57:14.980Z,19.90
2019-04-20T15:59:38.514Z,19.60
2019-04-20T16:02:25.180Z,19.00
2019-04-20T16:05:10.695Z,18.90
2019-04-20T16:07:46.825Z,19.10
2019-04-20T16:10:09.541Z,18.60
2019-04-20T16:12:38.480Z,18.90
2019-04-20T16:15:07.484Z,19.70
2019-04-20T16:17:39.008Z,20.10
2019-04-20T16:20:09.081Z,19.00
2019-04-20T16:22:34.656Z,19.60
2019-04-20T16:25:15.512Z,17.60
2019-04-20T16:27:43.543Z,17.60
2019-04-20T16:30:11.687Z,17.20
2019-04-20T16:32:40.557Z,17.40
2019-04-20T16:35:08.690Z,16.60
2019-04-20T16:37:36.666Z,17.80
2019-04-20T16:40:06.115Z,18.10
2019-04-20T16:42:38.510Z,18.20
2019-04-20T16:45:07.358Z,18.50
2019-04-20T16:47:36.643Z,19.20
2019-04-20T16:50:04.765Z,18.30
2019-04-20T16:52:32.801Z,18.30
2019-04-20T16:55:02.025Z,18.80
2019-04-20T16:57:31.861Z,19.30
2019-04-20T17:00:01.319Z,18.60
2019-04-20T17:02:31.925Z,17.70
2019-04-20T17:05:00.862Z,18.00
2019-04-20T17:07:35.516Z,18.70
2019-04-20T17:10:04.221Z,18.60
2019-04-20T17:12:33.626Z,19.20
2019-04-20T17:15:01.817Z,18.60
2019-04-20T17:17:29.591Z,18.60
2019-04-20T17:19:57.687Z,19.50
2019-04-20T17:22:25.545Z,19.20
2019-04-20T17:24:53.779Z,17.80
2019-04-20T17:27:41.289Z,17.50
2019-04-20T17:30:42.118Z,16.80
2019-04-20T17:33:11.736Z,17.20
2019-04-20T17:35:52.848Z,18.20
2019-04-20T17:38:09.004Z,17.10
2019-04-20T17:40:55.651Z,18.50
2019-04-20T17:43:16.025Z,18.20
2019-04-20T17:45:43.198Z,19.10
2019-04-20T17:48:18.922Z,18.70
2019-04-20T17:50:55.682Z,19.60
2019-04-20T17:53:27.789Z,18.60
2019-04-20T17:55:51.057Z,18.90
2019-04-20T17:58:23.205Z,18.20
2019-04-20T18:01:20.427Z,18.70
2019-04-20T18:04:13.967Z,19.40
2019-04-20T18:06:30.489Z,21.10
2019-04-20T18:08:56.156Z,20.80
2019-04-20T18:11:11.537Z,19.80
2019-04-20T18:13:36.089Z,18.20
2019-04-20T18:16:29.627Z,19.20
2019-04-20T18:19:15.309Z,20.20
2019-04-20T18:21:41.669Z,21.00
2019-04-20T18:24:14.505Z,21.10
2019-04-20T18:27:01.002Z,21.80
2019-04-20T18:29:32.253Z,22.30
2019-04-20T18:31:47.240Z,21.30
2019-04-20T18:34:26.984Z,21.30
2019-04-20T18:36:54.618Z,22.30
2019-04-20T18:39:29.111Z,21.80
2019-04-20T18:41:57.124Z,21.60
2019-04-20T18:44:27.728Z,22.00
2019-04-20T18:47:15.205Z,22.10
2019-04-20T18:49:36.043Z,22.20
2019-04-20T18:51:51.652Z,22.40
2019-04-20T18:54:23.975Z,22.70
2019-04-20T18:56:52.538Z,23.30
2019-04-20T18:59:22.786Z,23.30
2019-04-20T19:01:50.811Z,23.70
2019-04-20T19:04:19.695Z,23.60
2019-04-20T19:06:47.969Z,23.50
2019-04-20T19:09:21.623Z,23.60
2019-04-20T19:11:52.542Z,23.70
2019-04-20T19:14:49.500Z,23.70
2019-04-20T19:17:45.136Z,24.30
2019-04-20T19:20:26.932Z,25.10
2019-04-20T19:22:53.414Z,26.10
2019-04-20T19:25:27.421Z,25.90
2019-04-20T19:27:55.517Z,25.60
2019-04-20T19:30:31.580Z,28.40
2019-04-20T19:33:10.846Z,29.20
2019-04-20T19:35:33.607Z,29.90
2019-04-20T19:37:58.407Z,30.10
2019-04-20T19:40:36.051Z,30.00
2019-04-20T19:43:03.998Z,30.20
2019-04-20T19:45:42.642Z,30.90
2019-04-20T19:48:04.724Z,30.90
2019-04-20T19:50:54.693Z,31.90
2019-04-20T19:53:15.053Z,32.00
2019-04-20T19:55:31.790Z,32.20
2019-04-20T19:58:02.532Z,32.20
2019-04-20T20:00:22.520Z,31.80
2019-04-20T20:02:51.912Z,31.40
2019-04-20T20:05:30.411Z,31.20
2019-04-20T20:07:52.750Z,31.20
2019-04-20T20:10:20.870Z,30.60
2019-04-20T20:12:55.316Z,29.80
2019-04-20T20:15:27.463Z,29.40
2019-04-20T20:18:07.190Z,29.10
2019-04-20T20:20:35.596Z,29.30
2019-04-20T20:22:50.420Z,28.90
2019-04-20T20:25:17.002Z,30.00
2019-04-20T20:27:51.202Z,30.40
2019-04-20T20:30:23.390Z,29.90
2019-04-20T20:33:01.527Z,30.00
2019-04-20T20:35:23.043Z,30.60
2019-04-20T20:37:51.643Z,30.20
2019-04-20T20:40:18.931Z,30.00
2019-04-20T20:42:58.091Z,30.00
2019-04-20T20:45:22.719Z,30.00
2019-04-20T20:48:00.007Z,30.20
2019-04-20T20:50:32.585Z,30.20
2019-04-20T20:52:57.578Z,31.80
2019-04-20T20:55:24.694Z,32.20
2019-04-20T20:57:49.494Z,31.70
2019-04-20T21:00:24.151Z,31.70
2019-04-20T21:02:47.148Z,31.60
2019-04-20T21:05:11.570Z,32.40
2019-04-20T21:07:40.515Z,32.90
2019-04-20T21:10:10.272Z,32.80
2019-04-20T21:12:43.678Z,32.00
2019-04-20T21:15:15.123Z,33.30
2019-04-20T21:18:03.385Z,34.00
2019-04-20T21:20:20.422Z,35.40
2019-04-20T21:22:55.741Z,36.50
2019-04-20T21:25:11.212Z,35.60
2019-04-20T21:27:39.107Z,36.20
2019-04-20T21:30:15.570Z,36.80
2019-04-20T21:32:43.706Z,37.60
2019-04-20T21:35:12.822Z,37.20
2019-04-20T21:37:43.405Z,36.90
2019-04-20T21:40:22.364Z,36.30
2019-04-20T21:42:44.311Z,36.20
2019-04-20T21:45:15.822Z,36.30
2019-04-20T21:47:40.914Z,36.80
2019-04-20T21:50:27.089Z,36.80
2019-04-20T21:52:43.025Z,36.80
2019-04-20T21:55:07.909Z,36.80
2019-04-20T21:57:42.135Z,36.70
2019-04-20T22:00:14.800Z,37.50
2019-04-20T22:02:48.848Z,37.40
2019-04-20T22:05:09.411Z,37.20
2019-04-20T22:07:37.012Z,35.90
2019-04-20T22:10:05.087Z,36.20
2019-04-20T22:12:38.443Z,37.40
2019-04-20T22:15:09.222Z,38.50
2019-04-20T22:17:35.467Z,38.90
2019-04-20T22:20:12.069Z,39.30
2019-04-20T22:22:47.161Z,41.00
2019-04-20T22:25:16.165Z,41.10
2019-04-20T22:27:34.844Z,41.50
2019-04-20T22:30:02.043Z,41.00
2019-04-20T22:32:30.106Z,40.80
2019-04-20T22:35:03.231Z,40.60
2019-04-20T22:37:34.820Z,40.00
2019-04-20T22:40:03.348Z,40.30
2019-04-20T22:42:37.896Z,41.80
2019-04-20T22:45:06.452Z,41.00
2019-04-20T22:47:32.694Z,41.10
2019-04-20T22:50:20.276Z,41.00
2019-04-20T22:52:42.940Z,41.50
2019-04-20T22:55:22.407Z,42.00
2019-04-20T22:57:43.299Z,42.30
2019-04-20T23:00:06.535Z,42.90
2019-04-20T23:02:29.877Z,43.40
2019-04-20T23:04:57.919Z,43.10
2019-04-20T23:07:26.462Z,43.30
2019-04-20T23:09:57.725Z,43.70
2019-04-20T23:12:25.699Z,44.30
2019-04-20T23:14:54.220Z,44.60
2019-04-20T23:17:30.405Z,45.10
2019-04-20T23:19:56.135Z,44.90
2019-04-20T23:22:21.319Z,44.60
2019-04-20T23:24:49.458Z,43.40
2019-04-20T23:27:23.517Z,43.00
2019-04-20T23:29:46.960Z,44.20
2019-04-20T23:32:16.372Z,45.10
2019-04-20T23:34:44.752Z,45.30
2019-04-20T23:37:17.041Z,45.70
2019-04-20T23:39:45.013Z,46.30
2019-04-20T23:42:16.120Z,46.20
2019-04-20T23:45:09.334Z,46.50
2019-04-20T23:47:57.444Z,46.20
2019-04-20T23:50:40.910Z,47.50
2019-04-20T23:53:10.415Z,47.90
2019-04-20T23:55:19.025Z,48.60
2019-04-20T23:57:55.900Z,47.80
